createdAt,value
2018-06-12T00:01:43.219Z,6.87
2018-06-12T00:04:11.290Z,7.93
2018-06-12T00:06:39.667Z,7.40
2018-06-12T00:09:07.694Z,6.90
2018-06-12T00:11:35.681Z,6.63
2018-06-12T00:14:04.662Z,6.30
2018-06-12T00:16:32.700Z,7.10
2018-06-12T00:19:00.941Z,6.53
2018-06-12T00:21:29.082Z,6.60
2018-06-12T00:23:57.095Z,6.87
2018-06-12T00:26:25.113Z,7.50
2018-06-12T00:28:53.193Z,5.90
2018-06-12T00:31:21.765Z,7.00
2018-06-12T00:33:49.746Z,6.27
2018-06-12T00:36:17.716Z,6.60
2018-06-12T00:38:45.740Z,6.00
2018-06-12T00:41:13.754Z,7.30
2018-06-12T00:43:41.749Z,6.70
2018-06-12T00:46:10.187Z,6.60
2018-06-12T00:48:38.226Z,7.67
2018-06-12T00:51:07.172Z,7.03
2018-06-12T00:53:35.237Z,6.57
2018-06-12T00:56:04.484Z,7.60
2018-06-12T00:58:32.549Z,6.77
2018-06-12T01:01:00.957Z,7.43
2018-06-12T01:03:29.096Z,7.50
2018-06-12T01:05:57.174Z,7.63
2018-06-12T01:08:25.220Z,7.40
2018-06-12T01:10:53.720Z,7.30
2018-06-12T01:13:21.697Z,7.37
2018-06-12T01:15:49.744Z,8.40
2018-06-12T01:18:17.956Z,8.50
2018-06-12T01:20:45.959Z,7.97
2018-06-12T01:23:13.990Z,8.40
2018-06-12T01:25:43.115Z,7.90
2018-06-12T01:28:11.105Z,8.20
2018-06-12T01:30:39.133Z,8.43
2018-06-12T01:33:07.106Z,8.30
2018-06-12T01:35:35.889Z,7.60
2018-06-12T01:38:05.361Z,8.80
2018-06-12T01:40:34.514Z,7.50
2018-06-12T01:43:02.513Z,8.20
2018-06-12T01:45:30.512Z,9.30
2018-06-12T01:47:58.593Z,8.57
2018-06-12T01:50:26.600Z,8.60
2018-06-12T01:52:54.613Z,8.90
2018-06-12T01:55:22.781Z,8.80
2018-06-12T01:57:51.076Z,8.70
2018-06-12T02:00:19.411Z,8.80
2018-06-12T02:02:47.410Z,9.80
2018-06-12T02:05:15.585Z,8.93
2018-06-12T02:07:43.604Z,9.07
2018-06-12T02:10:13.362Z,8.80
2018-06-12T02:12:41.877Z,8.67
2018-06-12T02:15:10.376Z,8.37
2018-06-12T02:17:38.493Z,8.50
2018-06-12T02:20:06.553Z,7.87
2018-06-12T02:22:34.574Z,8.60
2018-06-12T02:25:04.227Z,8.30
2018-06-12T02:27:32.258Z,8.40
2018-06-12T02:30:00.267Z,7.37
2018-06-12T02:32:28.248Z,8.00
2018-06-12T02:34:56.245Z,8.13
2018-06-12T02:37:24.860Z,7.77
2018-06-12T02:39:52.842Z,7.50
2018-06-12T02:42:21.023Z,7.20
2018-06-12T02:44:49.025Z,6.97
2018-06-12T02:47:17.021Z,6.67
2018-06-12T02:49:45.010Z,7.00
2018-06-12T02:52:13.232Z,6.83
2018-06-12T02:54:41.248Z,6.80
2018-06-12T02:57:09.409Z,6.33
2018-06-12T02:59:37.825Z,6.17
2018-06-12T03:02:07.075Z,6.43
2018-06-12T03:04:35.114Z,5.37
2018-06-12T03:07:03.453Z,5.90
2018-06-12T03:09:31.494Z,6.30
2018-06-12T03:11:59.575Z,5.90
2018-06-12T03:14:27.629Z,6.00
2018-06-12T03:16:55.772Z,6.13
2018-06-12T03:19:24.335Z,5.77
2018-06-12T03:21:52.396Z,5.87
2018-06-12T03:24:20.377Z,5.50
2018-06-12T03:26:48.555Z,5.33
2018-06-12T03:29:17.182Z,5.20
2018-06-12T03:31:45.280Z,5.17
2018-06-12T03:34:13.261Z,5.10
2018-06-12T03:36:41.277Z,5.97
2018-06-12T03:39:09.257Z,5.63
2018-06-12T03:41:37.265Z,5.70
2018-06-12T03:44:06.372Z,5.23
2018-06-12T03:46:34.695Z,5.20
2018-06-12T03:49:02.697Z,5.30
2018-06-12T03:51:31.198Z,4.97
2018-06-12T03:53:59.468Z,5.20
2018-06-12T03:56:27.972Z,4.90
2018-06-12T03:58:56.120Z,5.10
2018-06-12T04:01:24.313Z,4.67
2018-06-12T04:03:53.107Z,5.47
2018-06-12T04:06:21.143Z,5.13
2018-06-12T04:08:49.205Z,5.47
2018-06-12T04:11:17.683Z,5.70
2018-06-12T04:13:45.905Z,5.10
2018-06-12T04:16:13.921Z,5.60
2018-06-12T04:18:42.635Z,4.30
2018-06-12T04:21:11.357Z,5.57
2018-06-12T04:23:39.519Z,5.23
2018-06-12T04:26:10.425Z,5.33
2018-06-12T04:28:41.017Z,4.57
2018-06-12T04:31:09.366Z,5.03
2018-06-12T04:33:37.583Z,4.70
2018-06-12T04:36:05.661Z,4.60
2018-06-12T04:38:33.649Z,6.03
2018-06-12T04:41:01.782Z,4.37
2018-06-12T04:43:29.852Z,4.00
2018-06-12T04:58:52.992Z,4.97
2018-06-12T05:01:21.265Z,5.50
2018-06-12T05:03:49.662Z,6.13
2018-06-12T05:06:17.761Z,6.40
2018-06-12T05:08:45.839Z,6.13
2018-06-12T05:11:14.440Z,5.60
2018-06-12T05:13:42.511Z,6.70
2018-06-12T05:16:10.595Z,6.30
2018-06-12T05:18:38.937Z,5.33
2018-06-12T05:21:07.117Z,5.80
2018-06-12T05:23:35.636Z,5.43
2018-06-12T05:26:05.295Z,5.47
2018-06-12T05:28:33.587Z,5.40
2018-06-12T05:31:02.832Z,5.50
2018-06-12T05:33:31.092Z,5.30
2018-06-12T05:35:59.464Z,5.03
2018-06-12T05:38:27.913Z,5.17
2018-06-12T05:40:56.183Z,4.60
2018-06-12T05:43:24.713Z,4.83
2018-06-12T05:45:53.888Z,3.80
2018-06-12T05:48:22.650Z,3.97
2018-06-12T05:50:50.750Z,4.23
2018-06-12T05:53:18.937Z,3.43
2018-06-12T05:55:47.194Z,4.27
2018-06-12T05:58:35.042Z,4.60
2018-06-12T06:03:56.421Z,4.07
2018-06-12T06:06:24.783Z,3.50
2018-06-12T06:08:53.017Z,3.50
2018-06-12T06:11:21.128Z,3.67
2018-06-12T06:13:49.922Z,3.60
2018-06-12T06:16:19.055Z,2.90
2018-06-12T06:18:48.055Z,4.27
2018-06-12T06:21:16.356Z,3.03
2018-06-12T06:23:45.839Z,2.97
2018-06-12T06:26:14.261Z,2.63
2018-06-12T06:28:42.293Z,3.23
2018-06-12T06:31:10.356Z,2.30
2018-06-12T06:33:38.560Z,2.90
2018-06-12T06:49:01.716Z,3.13
2018-06-12T06:51:29.792Z,2.10
2018-06-12T06:53:58.561Z,3.13
2018-06-12T06:56:27.673Z,2.90
2018-06-12T06:58:57.142Z,2.80
2018-06-12T07:01:26.558Z,3.10
2018-06-12T07:03:56.013Z,2.50
2018-06-12T07:06:24.578Z,2.97
2018-06-12T07:08:52.800Z,3.00
2018-06-12T07:11:21.032Z,2.70
2018-06-12T07:13:49.642Z,2.27
2018-06-12T07:16:17.765Z,2.70
2018-06-12T07:18:46.253Z,2.47
2018-06-12T07:21:17.757Z,2.40
2018-06-12T07:23:46.157Z,2.57
2018-06-12T07:26:14.225Z,2.70
2018-06-12T07:28:42.755Z,2.60
2018-06-12T07:31:11.538Z,2.43
2018-06-12T07:33:39.561Z,2.13
2018-06-12T07:36:07.650Z,2.20
2018-06-12T07:38:35.698Z,2.77
2018-06-12T07:41:03.718Z,2.33
2018-06-12T07:43:31.980Z,2.40
2018-06-12T07:46:00.519Z,2.43
2018-06-12T07:48:28.665Z,2.60
2018-06-12T07:50:57.355Z,2.20
2018-06-12T07:56:24.213Z,2.40
2018-06-12T07:58:54.860Z,3.00
2018-06-12T08:07:04.541Z,2.30
2018-06-12T08:09:32.935Z,2.47
2018-06-12T08:12:02.119Z,1.77
2018-06-12T08:14:30.464Z,2.47
2018-06-12T08:16:58.571Z,2.60
2018-06-12T08:19:26.712Z,3.20
2018-06-12T08:21:54.943Z,2.73
2018-06-12T08:24:23.040Z,2.60
2018-06-12T08:26:51.235Z,2.70
2018-06-12T08:29:19.327Z,3.47
2018-06-12T08:31:47.807Z,2.70
2018-06-12T08:34:15.837Z,2.73
2018-06-12T08:36:44.079Z,2.40
2018-06-12T08:39:12.151Z,3.37
2018-06-12T08:41:40.196Z,2.83
2018-06-12T08:44:08.728Z,2.97
2018-06-12T08:46:36.960Z,2.60
2018-06-12T08:49:05.087Z,2.67
2018-06-12T08:51:33.134Z,3.10
2018-06-12T08:59:44.053Z,3.10
2018-06-12T09:02:12.079Z,2.50
2018-06-12T09:04:40.869Z,2.63
2018-06-12T09:07:08.986Z,3.27
2018-06-12T09:09:37.163Z,2.70
2018-06-12T09:12:05.602Z,2.30
2018-06-12T09:14:33.708Z,3.20
2018-06-12T09:17:02.206Z,3.23
2018-06-12T09:19:30.532Z,3.60
2018-06-12T09:21:58.511Z,2.83
2018-06-12T09:24:26.528Z,2.70
2018-06-12T09:26:54.528Z,2.57
2018-06-12T09:29:22.532Z,3.17
2018-06-12T09:31:50.547Z,2.87
2018-06-12T09:34:18.545Z,3.10
2018-06-12T09:36:46.572Z,3.03
2018-06-12T09:39:14.767Z,3.00
2018-06-12T09:41:44.127Z,2.50
2018-06-12T09:44:12.431Z,2.83
2018-06-12T09:46:41.352Z,3.07
2018-06-12T09:49:09.487Z,2.60
2018-06-12T09:51:37.493Z,2.60
2018-06-12T09:54:07.875Z,2.80
2018-06-12T09:56:35.873Z,2.87
2018-06-12T09:59:04.377Z,2.60
2018-06-12T10:01:32.394Z,2.83
2018-06-12T10:04:00.415Z,2.87
2018-06-12T10:06:28.595Z,3.27
2018-06-12T10:08:56.626Z,2.70
2018-06-12T10:11:24.865Z,3.10
2018-06-12T10:13:53.710Z,3.10
2018-06-12T10:16:21.725Z,2.60
2018-06-12T10:24:32.392Z,2.50
2018-06-12T10:27:00.429Z,8.00
2018-06-12T10:29:28.460Z,3.90
2018-06-12T10:31:56.465Z,3.40
2018-06-12T10:34:28.766Z,2.77
2018-06-12T10:36:56.748Z,3.43
2018-06-12T10:39:24.736Z,2.63
2018-06-12T10:41:53.170Z,2.60
2018-06-12T10:44:21.240Z,3.03
2018-06-12T10:46:49.337Z,2.60
2018-06-12T10:49:17.890Z,3.30
2018-06-12T10:51:46.568Z,2.73
2018-06-12T11:00:06.217Z,3.30
2018-06-12T11:02:34.636Z,3.90
2018-06-12T11:05:02.947Z,2.90
2018-06-12T11:07:31.453Z,3.47
2018-06-12T11:09:59.473Z,3.30
2018-06-12T11:12:28.433Z,3.60
2018-06-12T11:14:56.520Z,3.73
2018-06-12T11:17:25.367Z,3.60
2018-06-12T11:19:53.461Z,5.03
2018-06-12T11:22:22.229Z,3.40
2018-06-12T11:24:50.280Z,4.10
2018-06-12T11:27:18.672Z,3.70
2018-06-12T11:29:47.788Z,3.63
2018-06-12T11:32:16.325Z,3.60
2018-06-12T11:34:45.840Z,4.57
2018-06-12T11:37:14.508Z,4.00
2018-06-12T11:39:42.968Z,4.53
2018-06-12T11:42:13.250Z,3.87
2018-06-12T11:44:42.008Z,3.90
2018-06-12T11:47:10.977Z,3.40
2018-06-12T11:49:40.141Z,3.30
2018-06-12T11:52:11.394Z,4.00
2018-06-12T11:54:41.061Z,4.33
2018-06-12T11:57:09.478Z,3.70
2018-06-12T11:59:37.647Z,3.47
2018-06-12T12:02:06.858Z,3.90
2018-06-12T12:04:34.907Z,4.30
2018-06-12T12:07:04.492Z,3.63
2018-06-12T12:09:33.456Z,4.73
2018-06-12T12:12:03.658Z,3.70
2018-06-12T12:14:32.477Z,5.10
2018-06-12T12:17:00.492Z,3.93
2018-06-12T12:19:28.504Z,4.70
2018-06-12T12:21:56.620Z,4.10
2018-06-12T12:24:25.265Z,3.80
2018-06-12T12:26:53.724Z,4.30
2018-06-12T12:29:22.473Z,3.87
2018-06-12T12:31:50.575Z,4.60
2018-06-12T12:34:18.583Z,4.50
2018-06-12T12:36:47.787Z,4.50
2018-06-12T12:39:17.701Z,3.90
2018-06-12T12:41:45.809Z,4.37
2018-06-12T12:44:14.367Z,3.67
2018-06-12T12:47:05.326Z,14.90
2018-06-12T12:49:45.846Z,6.63
2018-06-12T12:52:14.845Z,4.97
2018-06-12T12:54:43.695Z,4.17
2018-06-12T12:57:13.303Z,3.50
2018-06-12T12:59:41.470Z,3.10
2018-06-12T13:02:10.475Z,2.93
2018-06-12T13:04:38.667Z,3.10
2018-06-12T13:07:08.181Z,2.93
2018-06-12T13:09:37.588Z,3.10
2018-06-12T13:12:06.992Z,2.60
2018-06-12T13:14:34.982Z,3.87
2018-06-12T13:17:04.059Z,3.10
2018-06-12T13:19:33.014Z,3.43
2018-06-12T13:22:01.465Z,3.00
2018-06-12T13:24:31.751Z,3.20
2018-06-12T13:27:01.300Z,3.13
2018-06-12T13:29:31.044Z,3.40
2018-06-12T13:32:00.353Z,3.90
2018-06-12T13:34:29.880Z,3.33
2018-06-12T13:36:58.629Z,3.37
2018-06-12T13:39:27.304Z,3.80
2018-06-12T13:41:55.574Z,3.87
2018-06-12T13:44:23.605Z,3.67
2018-06-12T13:46:51.818Z,3.50
2018-06-12T13:49:19.884Z,3.60
2018-06-12T13:51:48.119Z,3.70
2018-06-12T13:54:16.095Z,3.33
2018-06-12T13:56:44.747Z,3.60
2018-06-12T13:59:12.829Z,3.80
2018-06-12T14:01:40.841Z,3.27
2018-06-12T14:04:08.845Z,4.10
2018-06-12T14:06:36.857Z,3.57
2018-06-12T14:09:06.693Z,3.50
2018-06-12T14:11:34.981Z,4.20
2018-06-12T14:17:19.440Z,4.07
2018-06-12T14:29:28.344Z,3.87
2018-06-12T14:31:56.799Z,4.00
2018-06-12T14:34:25.390Z,4.07
2018-06-12T14:36:53.863Z,4.20
2018-06-12T14:39:22.658Z,4.40
2018-06-12T14:41:51.287Z,3.40
2018-06-12T14:44:19.401Z,4.20
2018-06-12T14:46:47.709Z,3.70
2018-06-12T14:49:15.847Z,4.20
2018-06-12T14:51:44.933Z,3.43
2018-06-12T14:54:13.645Z,3.37
2018-06-12T14:56:41.941Z,3.90
2018-06-12T14:59:10.017Z,3.60
2018-06-12T15:07:24.857Z,4.43
2018-06-12T15:09:54.622Z,3.80
2018-06-12T15:12:23.098Z,3.60
2018-06-12T15:14:51.597Z,3.60
2018-06-12T15:17:20.037Z,3.00
2018-06-12T15:19:48.050Z,3.20
2018-06-12T15:22:17.388Z,3.30
2018-06-12T15:24:46.113Z,3.23
2018-06-12T15:27:14.785Z,3.83
2018-06-12T15:29:43.773Z,3.40
2018-06-12T15:32:13.019Z,3.33
2018-06-12T15:34:41.786Z,2.90
2018-06-12T15:37:10.402Z,2.90
2018-06-12T15:39:38.573Z,3.50
2018-06-12T15:42:08.673Z,4.00
2018-06-12T15:44:37.254Z,4.20
2018-06-12T15:47:06.745Z,3.50
2018-06-12T15:49:35.874Z,3.60
2018-06-12T15:52:06.328Z,3.10
2018-06-12T15:54:34.422Z,3.73
2018-06-12T15:57:03.896Z,3.57
2018-06-12T16:12:27.252Z,3.60
2018-06-12T16:14:57.245Z,3.40
2018-06-12T16:17:28.041Z,3.73
2018-06-12T16:19:56.588Z,3.53
2018-06-12T16:22:25.232Z,3.90
2018-06-12T16:24:54.031Z,3.40
2018-06-12T16:27:22.896Z,3.33
2018-06-12T16:29:51.867Z,3.67
2018-06-12T16:32:21.367Z,3.30
2018-06-12T16:34:49.405Z,3.10
2018-06-12T16:37:18.191Z,3.80
2018-06-12T16:39:46.439Z,2.90
2018-06-12T16:42:14.875Z,3.00
2018-06-12T16:44:42.918Z,3.00
2018-06-12T16:47:11.689Z,3.27
2018-06-12T16:49:39.791Z,2.60
2018-06-12T16:52:08.881Z,3.13
2018-06-12T16:54:37.512Z,3.47
2018-06-12T16:57:06.397Z,3.33
2018-06-12T16:59:34.633Z,3.60
2018-06-12T17:02:05.033Z,3.47
2018-06-12T17:04:33.307Z,3.80
2018-06-12T17:07:01.843Z,3.13
2018-06-12T17:09:29.992Z,3.43
2018-06-12T17:11:58.844Z,3.47
2018-06-12T17:14:26.981Z,3.30
2018-06-12T17:16:54.999Z,3.80
2018-06-12T17:19:23.307Z,3.93
2018-06-12T17:21:51.459Z,3.80
2018-06-12T17:24:20.125Z,3.30
2018-06-12T17:26:48.823Z,3.50
2018-06-12T17:29:17.129Z,3.30
2018-06-12T17:31:45.304Z,3.70
2018-06-12T17:34:14.184Z,4.00
2018-06-12T17:36:43.156Z,3.87
2018-06-12T17:39:11.960Z,3.30
2018-06-12T17:41:40.758Z,3.00
2018-06-12T17:44:09.948Z,4.20
2018-06-12T17:46:38.818Z,3.23
2018-06-12T17:49:07.916Z,2.80
2018-06-12T17:51:36.431Z,2.93
2018-06-12T17:54:06.666Z,2.90
2018-06-12T17:56:35.421Z,3.10
2018-06-12T17:59:05.208Z,2.77
2018-06-12T18:01:34.297Z,3.13
2018-06-12T18:04:04.496Z,3.00
2018-06-12T18:06:34.460Z,5.23
2018-06-12T18:09:03.342Z,3.60
2018-06-12T18:11:32.017Z,3.00
2018-06-12T18:14:00.947Z,3.23
2018-06-12T18:16:29.166Z,3.00
2018-06-12T18:19:16.432Z,3.30
2018-06-12T18:34:36.518Z,2.77
2018-06-12T18:37:04.914Z,3.03
2018-06-12T18:39:33.388Z,2.30
2018-06-12T18:42:01.752Z,2.63
2018-06-12T18:44:30.026Z,3.07
2018-06-12T18:46:58.624Z,2.73
2018-06-12T18:49:28.256Z,2.43
2018-06-12T18:51:57.427Z,3.07
2018-06-12T18:54:27.150Z,2.83
2018-06-12T18:56:56.623Z,2.70
2018-06-12T18:59:24.935Z,1.80
2018-06-12T19:01:53.313Z,2.07
2018-06-12T19:04:22.506Z,2.33
2018-06-12T19:06:51.778Z,2.47
2018-06-12T19:09:22.164Z,1.90
2018-06-12T19:11:51.664Z,2.30
2018-06-12T19:14:21.156Z,2.10
2018-06-12T19:16:49.478Z,2.50
2018-06-12T19:19:18.228Z,2.20
2018-06-12T19:21:46.875Z,2.27
2018-06-12T19:24:15.248Z,2.07
2018-06-12T19:26:43.712Z,1.90
2018-06-12T19:29:13.775Z,21.37
2018-06-12T19:31:42.400Z,10.87
2018-06-12T19:34:12.050Z,4.50
2018-06-12T19:36:40.860Z,3.13
2018-06-12T19:39:09.408Z,2.33
2018-06-12T19:41:38.821Z,2.27
2018-06-12T19:44:08.353Z,2.40
2018-06-12T19:46:37.163Z,2.23
2018-06-12T19:49:05.810Z,2.07
2018-06-12T19:51:34.668Z,2.17
2018-06-12T19:54:05.618Z,2.53
2018-06-12T19:56:34.270Z,2.03
2018-06-12T19:59:03.918Z,1.93
2018-06-12T20:01:32.316Z,2.10
2018-06-12T20:04:01.294Z,1.97
2018-06-12T20:06:29.989Z,2.33
2018-06-12T20:08:59.374Z,1.57
2018-06-12T20:11:28.648Z,1.93
2018-06-12T20:13:57.229Z,2.60
2018-06-12T20:16:25.649Z,1.97
2018-06-12T20:18:54.441Z,2.27
2018-06-12T20:21:25.580Z,2.10
2018-06-12T20:23:54.004Z,2.30
2018-06-12T20:26:23.774Z,1.90
2018-06-12T20:28:52.055Z,2.10
2018-06-12T20:31:20.272Z,2.10
2018-06-12T20:43:28.668Z,1.90
2018-06-12T20:45:56.844Z,1.60
2018-06-12T20:48:25.503Z,1.90
2018-06-12T20:50:53.799Z,1.80
2018-06-12T20:53:22.551Z,1.97
2018-06-12T20:55:50.815Z,2.37
2018-06-12T20:58:19.148Z,2.33
2018-06-12T21:00:47.345Z,2.13
2018-06-12T21:03:16.414Z,1.77
2018-06-12T21:05:44.991Z,2.53
2018-06-12T21:08:13.174Z,2.23
2018-06-12T21:10:41.652Z,1.50
2018-06-12T21:13:09.814Z,1.80
2018-06-12T21:15:37.913Z,1.70
2018-06-12T21:18:06.417Z,1.70
2018-06-12T21:20:35.496Z,1.83
2018-06-12T21:23:03.558Z,1.50
2018-06-12T21:25:31.597Z,1.80
2018-06-12T21:27:59.719Z,1.93
2018-06-12T21:30:28.206Z,1.70
2018-06-12T21:32:56.401Z,1.70
2018-06-12T21:35:25.026Z,1.83
2018-06-12T21:37:53.097Z,1.87
2018-06-12T21:40:21.197Z,1.70
2018-06-12T21:42:49.331Z,1.67
2018-06-12T21:45:17.809Z,1.87
2018-06-12T21:47:45.986Z,1.60
2018-06-12T21:50:14.138Z,1.67
2018-06-12T21:52:42.224Z,1.57
2018-06-12T21:55:10.489Z,1.47
2018-06-12T21:57:38.761Z,1.60
2018-06-12T22:00:07.410Z,1.77
2018-06-12T22:02:36.314Z,1.80
2018-06-12T22:05:05.155Z,1.53
2018-06-12T22:07:33.589Z,1.60
2018-06-12T22:10:03.363Z,1.60
2018-06-12T22:12:31.731Z,1.57
2018-06-12T22:14:59.754Z,1.23
2018-06-12T22:17:28.413Z,1.80
2018-06-12T22:19:56.478Z,1.27
2018-06-12T22:22:25.322Z,1.60
2018-06-12T22:24:53.369Z,1.40
2018-06-12T22:27:21.385Z,1.67
2018-06-12T22:29:49.469Z,2.17
2018-06-12T22:32:17.769Z,2.17
2018-06-12T22:34:45.939Z,1.60
2018-06-12T22:37:13.975Z,2.37
2018-06-12T22:39:41.998Z,2.17
2018-06-12T22:42:10.592Z,1.90
2018-06-12T22:44:38.660Z,1.70
2018-06-12T22:47:06.804Z,1.80
2018-06-12T22:49:34.840Z,1.70
2018-06-12T22:52:04.862Z,1.70
2018-06-12T22:54:33.194Z,1.90
2018-06-12T22:57:01.841Z,1.83
2018-06-12T22:59:29.826Z,2.30
2018-06-12T23:01:57.867Z,2.10
2018-06-12T23:04:25.903Z,1.97
2018-06-12T23:06:54.000Z,1.77
2018-06-12T23:09:22.457Z,1.70
2018-06-12T23:11:50.788Z,2.13
2018-06-12T23:14:18.784Z,2.23
2018-06-12T23:16:46.852Z,2.27
2018-06-12T23:19:15.948Z,2.40
2018-06-12T23:21:49.632Z,2.10
2018-06-12T23:24:17.847Z,2.17
2018-06-12T23:26:45.875Z,2.33
2018-06-12T23:29:14.596Z,2.20
2018-06-12T23:31:43.459Z,1.90
2018-06-12T23:34:11.462Z,2.37
2018-06-12T23:36:39.736Z,2.40
2018-06-12T23:39:08.228Z,2.10
2018-06-12T23:41:36.228Z,2.20
2018-06-12T23:44:04.291Z,2.20
2018-06-12T23:46:32.306Z,1.97
2018-06-12T23:49:00.653Z,2.00
2018-06-12T23:51:28.645Z,1.97
2018-06-12T23:53:56.665Z,1.97
2018-06-12T23:56:24.665Z,2.23
2018-06-12T23:58:52.699Z,2.07
